Terminal Aerodrome Forecast
Issued by NWS

Home | Current Version | Previous Version | Text Only | Print | Product List | Glossary On
Versions: 1 2 3 4 5 6 7 8 9 10 11 12
000
FTUS45 KRIW 162300
TAFLND
TAF
KLND 162332Z 1700/1724 VRB05KT P6SM VCSH SCT120
     FM170300 24011KT P6SM FEW120
     FM170700 VRB06KT P6SM FEW120
     FM171900 VRB06KT P6SM SCT120=

USA.gov is the U.S. government's official web portal to all federal, state and local government web resources and services.